Terminal Aerodrome Forecast
Issued by NWS Knoxville/Tri Cities, TN

Home | Current Version | Previous Version | Text Only | Print | Product List | Glossary On
Versions: 1 2 3 4 5 6 7 8 9 10 11 12 13 14 15 16 17 18 19 20 21 22 23 24 25
161
FTUS44 KMRX 141720
TAFTYS
TAF
KTYS 141720Z 1418/1518 04009KT P6SM OVC060
     FM142000 04008KT 4SM -SN OVC050
     FM150300 05008KT 6SM -FZRASN OVC050
     FM151000 05006KT 6SM -RA OVC020=

USA.gov is the U.S. government's official web portal to all federal, state and local government web resources and services.